sensor_id;sensor_type;location;lat;lon;timestamp;P1;durP1;ratioP1;P2;durP2;ratioP2
8088;SDS011;57635;49.194;12.104;2023-03-14T00:01:07;1.20;;;1.20;;
8088;SDS011;57635;49.194;12.104;2023-03-14T00:03:36;1.43;;;1.37;;
8088;SDS011;57635;49.194;12.104;2023-03-14T00:06:04;1.50;;;1.40;;
8088;SDS011;57635;49.194;12.104;2023-03-14T00:08:33;1.87;;;1.10;;
8088;SDS011;57635;49.194;12.104;2023-03-14T00:11:03;2.30;;;1.23;;
8088;SDS011;57635;49.194;12.104;2023-03-14T00:13:32;2.57;;;1.53;;
8088;SDS011;57635;49.194;12.104;2023-03-14T00:16:05;1.40;;;1.30;;
8088;SDS011;57635;49.194;12.104;2023-03-14T00:18:33;1.30;;;1.30;;
8088;SDS011;57635;49.194;12.104;2023-03-14T00:21:02;1.30;;;1.30;;
8088;SDS011;57635;49.194;12.104;2023-03-14T00:23:31;1.60;;;1.50;;
8088;SDS011;57635;49.194;12.104;2023-03-14T00:26:00;3.33;;;1.47;;
8088;SDS011;57635;49.194;12.104;2023-03-14T00:28:28;1.63;;;1.43;;
8088;SDS011;57635;49.194;12.104;2023-03-14T00:30:56;3.47;;;3.27;;
8088;SDS011;57635;49.194;12.104;2023-03-14T00:33:25;3.43;;;3.13;;
8088;SDS011;57635;49.194;12.104;2023-03-14T00:35:54;3.87;;;3.57;;
8088;SDS011;57635;49.194;12.104;2023-03-14T00:38:22;1.83;;;1.73;;
8088;SDS011;57635;49.194;12.104;2023-03-14T00:40:50;1.10;;;1.10;;
8088;SDS011;57635;49.194;12.104;2023-03-14T00:43:19;1.10;;;1.10;;
8088;SDS011;57635;49.194;12.104;2023-03-14T00:45:47;0.80;;;0.80;;
8088;SDS011;57635;49.194;12.104;2023-03-14T00:48:15;0.93;;;0.93;;
8088;SDS011;57635;49.194;12.104;2023-03-14T00:50:44;1.20;;;1.20;;
8088;SDS011;57635;49.194;12.104;2023-03-14T00:53:12;0.93;;;0.90;;
8088;SDS011;57635;49.194;12.104;2023-03-14T00:55:41;2.03;;;1.00;;
8088;SDS011;57635;49.194;12.104;2023-03-14T00:58:09;2.30;;;1.53;;
8088;SDS011;57635;49.194;12.104;2023-03-14T01:00:38;2.07;;;1.43;;
8088;SDS011;57635;49.194;12.104;2023-03-14T01:03:06;1.90;;;1.30;;
8088;SDS011;57635;49.194;12.104;2023-03-14T01:05:35;1.20;;;1.20;;
8088;SDS011;57635;49.194;12.104;2023-03-14T01:08:04;2.27;;;1.67;;
8088;SDS011;57635;49.194;12.104;2023-03-14T01:10:33;0.80;;;0.80;;
8088;SDS011;57635;49.194;12.104;2023-03-14T01:13:00;1.37;;;0.97;;
8088;SDS011;57635;49.194;12.104;2023-03-14T01:15:28;0.87;;;0.87;;
8088;SDS011;57635;49.194;12.104;2023-03-14T01:17:56;0.80;;;0.77;;
8088;SDS011;57635;49.194;12.104;2023-03-14T01:20:24;0.77;;;0.77;;
8088;SDS011;57635;49.194;12.104;2023-03-14T01:22:51;0.80;;;0.80;;
8088;SDS011;57635;49.194;12.104;2023-03-14T01:25:20;1.00;;;0.90;;
8088;SDS011;57635;49.194;12.104;2023-03-14T01:27:48;0.63;;;0.63;;
8088;SDS011;57635;49.194;12.104;2023-03-14T01:30:16;0.50;;;0.50;;
8088;SDS011;57635;49.194;12.104;2023-03-14T01:32:43;0.70;;;0.70;;
8088;SDS011;57635;49.194;12.104;2023-03-14T01:35:11;0.80;;;0.73;;
8088;SDS011;57635;49.194;12.104;2023-03-14T01:37:39;0.50;;;0.50;;
8088;SDS011;57635;49.194;12.104;2023-03-14T01:40:09;0.67;;;0.67;;
8088;SDS011;57635;49.194;12.104;2023-03-14T01:42:45;1.03;;;0.70;;
8088;SDS011;57635;49.194;12.104;2023-03-14T01:48:18;1.90;;;0.63;;
8088;SDS011;57635;49.194;12.104;2023-03-14T01:50:46;0.77;;;0.77;;
8088;SDS011;57635;49.194;12.104;2023-03-14T01:53:14;0.60;;;0.60;;
8088;SDS011;57635;49.194;12.104;2023-03-14T01:55:42;0.70;;;0.70;;
8088;SDS011;57635;49.194;12.104;2023-03-14T01:58:11;0.47;;;0.47;;
8088;SDS011;57635;49.194;12.104;2023-03-14T02:00:38;1.47;;;0.70;;
8088;SDS011;57635;49.194;12.104;2023-03-14T02:03:06;0.60;;;0.60;;
8088;SDS011;57635;49.194;12.104;2023-03-14T02:05:38;0.30;;;0.30;;
8088;SDS011;57635;49.194;12.104;2023-03-14T02:08:07;0.67;;;0.60;;
8088;SDS011;57635;49.194;12.104;2023-03-14T02:10:37;0.70;;;0.70;;
8088;SDS011;57635;49.194;12.104;2023-03-14T02:13:06;0.60;;;0.60;;
8088;SDS011;57635;49.194;12.104;2023-03-14T02:15:35;0.93;;;0.60;;
8088;SDS011;57635;49.194;12.104;2023-03-14T02:18:04;0.77;;;0.60;;
8088;SDS011;57635;49.194;12.104;2023-03-14T02:20:33;0.60;;;0.60;;
8088;SDS011;57635;49.194;12.104;2023-03-14T02:23:02;0.83;;;0.70;;
8088;SDS011;57635;49.194;12.104;2023-03-14T02:25:33;0.50;;;0.50;;
8088;SDS011;57635;49.194;12.104;2023-03-14T02:28:05;0.73;;;0.73;;
8088;SDS011;57635;49.194;12.104;2023-03-14T02:30:33;1.60;;;0.90;;
8088;SDS011;57635;49.194;12.104;2023-03-14T02:33:03;0.70;;;0.70;;
8088;SDS011;57635;49.194;12.104;2023-03-14T02:35:32;0.50;;;0.50;;
8088;SDS011;57635;49.194;12.104;2023-03-14T02:38:03;0.60;;;0.60;;
8088;SDS011;57635;49.194;12.104;2023-03-14T02:40:34;0.77;;;0.77;;
8088;SDS011;57635;49.194;12.104;2023-03-14T02:43:02;1.10;;;1.10;;
8088;SDS011;57635;49.194;12.104;2023-03-14T02:45:41;1.17;;;0.90;;
8088;SDS011;57635;49.194;12.104;2023-03-14T02:48:14;1.20;;;0.97;;
8088;SDS011;57635;49.194;12.104;2023-03-14T02:50:43;1.43;;;0.90;;
8088;SDS011;57635;49.194;12.104;2023-03-14T02:53:14;0.87;;;0.73;;
8088;SDS011;57635;49.194;12.104;2023-03-14T02:55:46;1.57;;;1.00;;
8088;SDS011;57635;49.194;12.104;2023-03-14T02:58:15;0.60;;;0.60;;
8088;SDS011;57635;49.194;12.104;2023-03-14T03:00:44;0.53;;;0.53;;
8088;SDS011;57635;49.194;12.104;2023-03-14T03:03:12;1.20;;;0.53;;
8088;SDS011;57635;49.194;12.104;2023-03-14T03:05:40;0.93;;;0.73;;
8088;SDS011;57635;49.194;12.104;2023-03-14T03:08:08;0.97;;;0.70;;
8088;SDS011;57635;49.194;12.104;2023-03-14T03:10:36;0.50;;;0.50;;
8088;SDS011;57635;49.194;12.104;2023-03-14T03:13:04;0.47;;;0.47;;
8088;SDS011;57635;49.194;12.104;2023-03-14T03:15:31;1.53;;;0.70;;
8088;SDS011;57635;49.194;12.104;2023-03-14T03:18:00;0.63;;;0.63;;
8088;SDS011;57635;49.194;12.104;2023-03-14T03:20:28;0.70;;;0.70;;
8088;SDS011;57635;49.194;12.104;2023-03-14T03:22:55;0.50;;;0.50;;
8088;SDS011;57635;49.194;12.104;2023-03-14T03:25:23;0.57;;;0.57;;
8088;SDS011;57635;49.194;12.104;2023-03-14T03:27:51;0.60;;;0.60;;
8088;SDS011;57635;49.194;12.104;2023-03-14T03:30:18;0.60;;;0.60;;
8088;SDS011;57635;49.194;12.104;2023-03-14T03:32:46;0.50;;;0.50;;
8088;SDS011;57635;49.194;12.104;2023-03-14T03:35:16;1.07;;;0.93;;
8088;SDS011;57635;49.194;12.104;2023-03-14T03:37:43;1.10;;;1.10;;
8088;SDS011;57635;49.194;12.104;2023-03-14T03:40:11;0.60;;;0.60;;
8088;SDS011;57635;49.194;12.104;2023-03-14T03:42:39;1.80;;;0.90;;
8088;SDS011;57635;49.194;12.104;2023-03-14T03:45:07;1.33;;;0.83;;
8088;SDS011;57635;49.194;12.104;2023-03-14T03:47:35;0.80;;;0.80;;
8088;SDS011;57635;49.194;12.104;2023-03-14T03:50:03;1.20;;;0.90;;
8088;SDS011;57635;49.194;12.104;2023-03-14T03:52:32;0.70;;;0.70;;
8088;SDS011;57635;49.194;12.104;2023-03-14T03:55:00;0.80;;;0.80;;
8088;SDS011;57635;49.194;12.104;2023-03-14T03:57:28;0.93;;;0.93;;
8088;SDS011;57635;49.194;12.104;2023-03-14T03:59:55;0.80;;;0.80;;
8088;SDS011;57635;49.194;12.104;2023-03-14T04:02:23;0.90;;;0.90;;
8088;SDS011;57635;49.194;12.104;2023-03-14T04:04:51;0.90;;;0.90;;
8088;SDS011;57635;49.194;12.104;2023-03-14T04:07:19;0.87;;;0.87;;
8088;SDS011;57635;49.194;12.104;2023-03-14T04:09:48;0.50;;;0.50;;
8088;SDS011;57635;49.194;12.104;2023-03-14T04:12:15;0.60;;;0.60;;
8088;SDS011;57635;49.194;12.104;2023-03-14T04:14:43;0.80;;;0.80;;
8088;SDS011;57635;49.194;12.104;2023-03-14T04:17:11;1.60;;;0.60;;
8088;SDS011;57635;49.194;12.104;2023-03-14T04:19:38;0.67;;;0.67;;
8088;SDS011;57635;49.194;12.104;2023-03-14T04:22:07;0.80;;;0.80;;
8088;SDS011;57635;49.194;12.104;2023-03-14T04:24:35;0.77;;;0.77;;
8088;SDS011;57635;49.194;12.104;2023-03-14T04:27:04;1.17;;;0.90;;
8088;SDS011;57635;49.194;12.104;2023-03-14T04:29:32;0.70;;;0.70;;
8088;SDS011;57635;49.194;12.104;2023-03-14T04:32:00;0.77;;;0.77;;
8088;SDS011;57635;49.194;12.104;2023-03-14T04:34:28;0.57;;;0.57;;
8088;SDS011;57635;49.194;12.104;2023-03-14T04:36:55;2.10;;;0.80;;
8088;SDS011;57635;49.194;12.104;2023-03-14T04:39:23;1.73;;;1.20;;
8088;SDS011;57635;49.194;12.104;2023-03-14T04:41:51;0.93;;;0.93;;
8088;SDS011;57635;49.194;12.104;2023-03-14T04:44:21;0.77;;;0.77;;
8088;SDS011;57635;49.194;12.104;2023-03-14T04:46:48;0.90;;;0.90;;
8088;SDS011;57635;49.194;12.104;2023-03-14T04:49:16;0.80;;;0.80;;
8088;SDS011;57635;49.194;12.104;2023-03-14T04:51:44;1.63;;;0.90;;
8088;SDS011;57635;49.194;12.104;2023-03-14T04:54:12;0.90;;;0.90;;
8088;SDS011;57635;49.194;12.104;2023-03-14T04:56:40;1.07;;;1.07;;
8088;SDS011;57635;49.194;12.104;2023-03-14T04:59:07;1.10;;;1.10;;
8088;SDS011;57635;49.194;12.104;2023-03-14T05:01:36;0.90;;;0.90;;
8088;SDS011;57635;49.194;12.104;2023-03-14T05:04:04;0.83;;;0.83;;
8088;SDS011;57635;49.194;12.104;2023-03-14T05:06:32;0.80;;;0.80;;
8088;SDS011;57635;49.194;12.104;2023-03-14T05:08:59;0.80;;;0.80;;
8088;SDS011;57635;49.194;12.104;2023-03-14T05:11:27;1.00;;;1.00;;
8088;SDS011;57635;49.194;12.104;2023-03-14T05:13:55;1.20;;;1.10;;
8088;SDS011;57635;49.194;12.104;2023-03-14T05:16:23;2.53;;;1.23;;
8088;SDS011;57635;49.194;12.104;2023-03-14T05:18:52;0.90;;;0.90;;
8088;SDS011;57635;49.194;12.104;2023-03-14T05:21:19;1.67;;;1.67;;
8088;SDS011;57635;49.194;12.104;2023-03-14T05:23:47;1.53;;;1.43;;
8088;SDS011;57635;49.194;12.104;2023-03-14T05:26:15;1.20;;;1.20;;
8088;SDS011;57635;49.194;12.104;2023-03-14T05:28:43;1.27;;;1.20;;
8088;SDS011;57635;49.194;12.104;2023-03-14T05:31:11;1.57;;;1.50;;
8088;SDS011;57635;49.194;12.104;2023-03-14T05:33:38;1.27;;;1.27;;
8088;SDS011;57635;49.194;12.104;2023-03-14T05:36:08;0.87;;;0.87;;
8088;SDS011;57635;49.194;12.104;2023-03-14T05:38:36;1.37;;;1.27;;
8088;SDS011;57635;49.194;12.104;2023-03-14T05:41:04;1.10;;;1.10;;
8088;SDS011;57635;49.194;12.104;2023-03-14T05:43:32;1.33;;;1.33;;
8088;SDS011;57635;49.194;12.104;2023-03-14T05:46:00;0.90;;;0.90;;
8088;SDS011;57635;49.194;12.104;2023-03-14T05:48:28;1.10;;;1.10;;
8088;SDS011;57635;49.194;12.104;2023-03-14T05:50:55;3.70;;;1.60;;
8088;SDS011;57635;49.194;12.104;2023-03-14T05:53:25;1.00;;;1.00;;
8088;SDS011;57635;49.194;12.104;2023-03-14T05:55:53;1.30;;;1.30;;
8088;SDS011;57635;49.194;12.104;2023-03-14T05:58:23;1.40;;;1.30;;
8088;SDS011;57635;49.194;12.104;2023-03-14T06:00:51;1.70;;;1.40;;
8088;SDS011;57635;49.194;12.104;2023-03-14T06:03:18;0.90;;;0.90;;
8088;SDS011;57635;49.194;12.104;2023-03-14T06:05:48;2.30;;;1.20;;
8088;SDS011;57635;49.194;12.104;2023-03-14T06:08:16;1.43;;;1.30;;
8088;SDS011;57635;49.194;12.104;2023-03-14T06:10:46;1.30;;;1.20;;
8088;SDS011;57635;49.194;12.104;2023-03-14T06:13:13;1.23;;;1.23;;
8088;SDS011;57635;49.194;12.104;2023-03-14T06:15:42;1.83;;;1.20;;
8088;SDS011;57635;49.194;12.104;2023-03-14T06:18:10;1.43;;;1.33;;
8088;SDS011;57635;49.194;12.104;2023-03-14T06:20:38;2.47;;;1.37;;
8088;SDS011;57635;49.194;12.104;2023-03-14T06:23:06;2.50;;;1.50;;
8088;SDS011;57635;49.194;12.104;2023-03-14T06:25:34;1.50;;;1.40;;
8088;SDS011;57635;49.194;12.104;2023-03-14T06:28:04;1.30;;;1.20;;
8088;SDS011;57635;49.194;12.104;2023-03-14T06:30:31;1.40;;;1.40;;
8088;SDS011;57635;49.194;12.104;2023-03-14T06:32:59;1.30;;;1.30;;
8088;SDS011;57635;49.194;12.104;2023-03-14T06:35:27;1.47;;;1.17;;
8088;SDS011;57635;49.194;12.104;2023-03-14T06:37:54;1.60;;;1.50;;
8088;SDS011;57635;49.194;12.104;2023-03-14T06:40:22;1.57;;;1.47;;
8088;SDS011;57635;49.194;12.104;2023-03-14T06:42:50;1.27;;;1.27;;
8088;SDS011;57635;49.194;12.104;2023-03-14T06:45:19;1.80;;;1.70;;
8088;SDS011;57635;49.194;12.104;2023-03-14T06:47:47;1.40;;;1.40;;
8088;SDS011;57635;49.194;12.104;2023-03-14T06:50:14;1.70;;;1.70;;
8088;SDS011;57635;49.194;12.104;2023-03-14T06:52:42;1.77;;;1.50;;
8088;SDS011;57635;49.194;12.104;2023-03-14T06:55:14;1.40;;;1.40;;
8088;SDS011;57635;49.194;12.104;2023-03-14T06:57:42;1.63;;;1.53;;
8088;SDS011;57635;49.194;12.104;2023-03-14T07:00:10;1.83;;;1.73;;
8088;SDS011;57635;49.194;12.104;2023-03-14T07:02:40;2.23;;;1.80;;
8088;SDS011;57635;49.194;12.104;2023-03-14T07:05:08;1.67;;;1.67;;
8088;SDS011;57635;49.194;12.104;2023-03-14T07:07:36;2.00;;;1.90;;
8088;SDS011;57635;49.194;12.104;2023-03-14T07:10:04;2.00;;;1.90;;
8088;SDS011;57635;49.194;12.104;2023-03-14T07:12:34;1.97;;;1.70;;
8088;SDS011;57635;49.194;12.104;2023-03-14T07:15:02;1.63;;;1.53;;
8088;SDS011;57635;49.194;12.104;2023-03-14T07:17:44;1.73;;;1.73;;
8088;SDS011;57635;49.194;12.104;2023-03-14T07:20:14;1.30;;;1.30;;
8088;SDS011;57635;49.194;12.104;2023-03-14T07:22:42;1.43;;;1.33;;
8088;SDS011;57635;49.194;12.104;2023-03-14T07:25:10;1.57;;;1.53;;
8088;SDS011;57635;49.194;12.104;2023-03-14T07:27:38;2.13;;;1.70;;
8088;SDS011;57635;49.194;12.104;2023-03-14T07:30:06;2.97;;;2.77;;
8088;SDS011;57635;49.194;12.104;2023-03-14T07:32:34;2.20;;;2.10;;
8088;SDS011;57635;49.194;12.104;2023-03-14T07:35:04;1.40;;;1.40;;
8088;SDS011;57635;49.194;12.104;2023-03-14T07:37:32;2.17;;;2.07;;
8088;SDS011;57635;49.194;12.104;2023-03-14T07:40:00;3.00;;;2.10;;
8088;SDS011;57635;49.194;12.104;2023-03-14T07:42:31;1.73;;;1.63;;
8088;SDS011;57635;49.194;12.104;2023-03-14T07:44:59;1.23;;;1.20;;
8088;SDS011;57635;49.194;12.104;2023-03-14T07:47:27;1.40;;;1.40;;
8088;SDS011;57635;49.194;12.104;2023-03-14T07:49:54;1.73;;;1.40;;
8088;SDS011;57635;49.194;12.104;2023-03-14T07:52:23;1.20;;;1.20;;
8088;SDS011;57635;49.194;12.104;2023-03-14T07:54:51;1.60;;;1.60;;
8088;SDS011;57635;49.194;12.104;2023-03-14T07:57:18;2.13;;;1.40;;
8088;SDS011;57635;49.194;12.104;2023-03-14T07:59:46;1.43;;;1.40;;
8088;SDS011;57635;49.194;12.104;2023-03-14T08:02:14;0.80;;;0.80;;
8088;SDS011;57635;49.194;12.104;2023-03-14T08:04:42;1.20;;;1.20;;
8088;SDS011;57635;49.194;12.104;2023-03-14T08:07:09;1.20;;;1.20;;
8088;SDS011;57635;49.194;12.104;2023-03-14T08:09:38;0.90;;;0.90;;
8088;SDS011;57635;49.194;12.104;2023-03-14T08:12:06;1.57;;;1.33;;
8088;SDS011;57635;49.194;12.104;2023-03-14T08:14:34;0.83;;;0.83;;
8088;SDS011;57635;49.194;12.104;2023-03-14T08:17:02;1.10;;;1.10;;
8088;SDS011;57635;49.194;12.104;2023-03-14T08:19:30;1.10;;;1.10;;
8088;SDS011;57635;49.194;12.104;2023-03-14T08:21:58;2.23;;;1.20;;
8088;SDS011;57635;49.194;12.104;2023-03-14T08:24:26;1.63;;;0.80;;
8088;SDS011;57635;49.194;12.104;2023-03-14T08:26:55;0.83;;;0.83;;
8088;SDS011;57635;49.194;12.104;2023-03-14T08:29:23;1.00;;;1.00;;
8088;SDS011;57635;49.194;12.104;2023-03-14T08:31:50;0.87;;;0.87;;
8088;SDS011;57635;49.194;12.104;2023-03-14T08:34:18;1.17;;;0.77;;
8088;SDS011;57635;49.194;12.104;2023-03-14T08:36:46;1.10;;;1.00;;
8088;SDS011;57635;49.194;12.104;2023-03-14T08:39:13;0.70;;;0.70;;
8088;SDS011;57635;49.194;12.104;2023-03-14T08:41:41;1.07;;;0.97;;
8088;SDS011;57635;49.194;12.104;2023-03-14T08:44:12;1.00;;;1.00;;
8088;SDS011;57635;49.194;12.104;2023-03-14T08:46:39;1.00;;;1.00;;
8088;SDS011;57635;49.194;12.104;2023-03-14T08:49:07;0.90;;;0.90;;
8088;SDS011;57635;49.194;12.104;2023-03-14T08:51:35;1.13;;;1.00;;
8088;SDS011;57635;49.194;12.104;2023-03-14T08:54:02;0.90;;;0.90;;
8088;SDS011;57635;49.194;12.104;2023-03-14T08:56:30;0.80;;;0.80;;
8088;SDS011;57635;49.194;12.104;2023-03-14T08:58:58;0.83;;;0.83;;
8088;SDS011;57635;49.194;12.104;2023-03-14T09:01:27;0.90;;;0.90;;
8088;SDS011;57635;49.194;12.104;2023-03-14T09:03:55;0.80;;;0.80;;
8088;SDS011;57635;49.194;12.104;2023-03-14T09:06:22;1.80;;;0.83;;
8088;SDS011;57635;49.194;12.104;2023-03-14T09:08:50;0.80;;;0.80;;
8088;SDS011;57635;49.194;12.104;2023-03-14T09:11:18;1.20;;;1.10;;
8088;SDS011;57635;49.194;12.104;2023-03-14T09:13:45;1.30;;;1.20;;
8088;SDS011;57635;49.194;12.104;2023-03-14T09:16:14;1.70;;;1.00;;
8088;SDS011;57635;49.194;12.104;2023-03-14T09:18:45;1.90;;;0.87;;
8088;SDS011;57635;49.194;12.104;2023-03-14T09:21:12;1.30;;;1.20;;
8088;SDS011;57635;49.194;12.104;2023-03-14T09:23:40;0.80;;;0.80;;
8088;SDS011;57635;49.194;12.104;2023-03-14T09:26:11;1.03;;;0.93;;
8088;SDS011;57635;49.194;12.104;2023-03-14T09:28:39;1.67;;;1.00;;
8088;SDS011;57635;49.194;12.104;2023-03-14T09:31:07;1.00;;;1.00;;
8088;SDS011;57635;49.194;12.104;2023-03-14T09:33:35;2.37;;;0.87;;
8088;SDS011;57635;49.194;12.104;2023-03-14T09:36:05;0.70;;;0.70;;
8088;SDS011;57635;49.194;12.104;2023-03-14T09:38:33;1.80;;;1.00;;
8088;SDS011;57635;49.194;12.104;2023-03-14T09:41:03;1.80;;;0.73;;
8088;SDS011;57635;49.194;12.104;2023-03-14T09:43:37;0.80;;;0.80;;
8088;SDS011;57635;49.194;12.104;2023-03-14T09:46:05;1.30;;;1.20;;
8088;SDS011;57635;49.194;12.104;2023-03-14T09:48:35;3.93;;;0.90;;
8088;SDS011;57635;49.194;12.104;2023-03-14T09:51:03;0.90;;;0.90;;
8088;SDS011;57635;49.194;12.104;2023-03-14T09:53:37;0.77;;;0.77;;
8088;SDS011;57635;49.194;12.104;2023-03-14T09:56:08;2.77;;;1.10;;
8088;SDS011;57635;49.194;12.104;2023-03-14T09:58:39;1.40;;;0.80;;
8088;SDS011;57635;49.194;12.104;2023-03-14T10:01:09;1.00;;;0.97;;
8088;SDS011;57635;49.194;12.104;2023-03-14T10:03:38;0.83;;;0.83;;
8088;SDS011;57635;49.194;12.104;2023-03-14T10:06:10;0.60;;;0.60;;
8088;SDS011;57635;49.194;12.104;2023-03-14T10:08:40;0.97;;;0.97;;
8088;SDS011;57635;49.194;12.104;2023-03-14T10:11:11;1.57;;;0.77;;
8088;SDS011;57635;49.194;12.104;2023-03-14T10:14:02;2.03;;;1.27;;
8088;SDS011;57635;49.194;12.104;2023-03-14T10:16:32;2.20;;;1.00;;
8088;SDS011;57635;49.194;12.104;2023-03-14T10:19:01;0.90;;;0.90;;
8088;SDS011;57635;49.194;12.104;2023-03-14T10:21:35;1.27;;;0.60;;
8088;SDS011;57635;49.194;12.104;2023-03-14T10:24:07;1.10;;;0.80;;
8088;SDS011;57635;49.194;12.104;2023-03-14T10:26:37;0.77;;;0.73;;
8088;SDS011;57635;49.194;12.104;2023-03-14T10:29:08;0.90;;;0.90;;
8088;SDS011;57635;49.194;12.104;2023-03-14T10:31:47;0.80;;;0.80;;
8088;SDS011;57635;49.194;12.104;2023-03-14T10:34:21;0.60;;;0.60;;
8088;SDS011;57635;49.194;12.104;2023-03-14T10:36:55;0.70;;;0.70;;
8088;SDS011;57635;49.194;12.104;2023-03-14T10:39:26;0.80;;;0.80;;
8088;SDS011;57635;49.194;12.104;2023-03-14T10:42:01;1.23;;;0.60;;
8088;SDS011;57635;49.194;12.104;2023-03-14T10:44:31;2.87;;;0.90;;
8088;SDS011;57635;49.194;12.104;2023-03-14T10:47:00;1.77;;;0.80;;
8088;SDS011;57635;49.194;12.104;2023-03-14T10:49:29;1.50;;;0.83;;
8088;SDS011;57635;49.194;12.104;2023-03-14T10:52:12;0.70;;;0.67;;
8088;SDS011;57635;49.194;12.104;2023-03-14T10:54:41;1.57;;;1.00;;
8088;SDS011;57635;49.194;12.104;2023-03-14T10:57:14;0.57;;;0.57;;
8088;SDS011;57635;49.194;12.104;2023-03-14T10:59:42;0.53;;;0.53;;
8088;SDS011;57635;49.194;12.104;2023-03-14T11:02:15;2.03;;;0.77;;
8088;SDS011;57635;49.194;12.104;2023-03-14T11:04:58;1.43;;;0.87;;
8088;SDS011;57635;49.194;12.104;2023-03-14T11:07:35;1.60;;;0.80;;
8088;SDS011;57635;49.194;12.104;2023-03-14T11:10:08;3.40;;;1.00;;
8088;SDS011;57635;49.194;12.104;2023-03-14T11:12:43;0.60;;;0.57;;
8088;SDS011;57635;49.194;12.104;2023-03-14T11:15:17;0.67;;;0.67;;
8088;SDS011;57635;49.194;12.104;2023-03-14T11:17:50;1.40;;;0.73;;
8088;SDS011;57635;49.194;12.104;2023-03-14T11:20:31;0.80;;;0.80;;
8088;SDS011;57635;49.194;12.104;2023-03-14T11:23:04;1.93;;;0.83;;
8088;SDS011;57635;49.194;12.104;2023-03-14T11:25:37;0.70;;;0.70;;
8088;SDS011;57635;49.194;12.104;2023-03-14T11:28:14;0.43;;;0.43;;
8088;SDS011;57635;49.194;12.104;2023-03-14T11:30:48;1.23;;;0.70;;
8088;SDS011;57635;49.194;12.104;2023-03-14T11:33:21;1.13;;;0.83;;
8088;SDS011;57635;49.194;12.104;2023-03-14T11:35:53;0.70;;;0.70;;
8088;SDS011;57635;49.194;12.104;2023-03-14T11:38:31;0.83;;;0.83;;
8088;SDS011;57635;49.194;12.104;2023-03-14T11:41:01;1.03;;;0.70;;
8088;SDS011;57635;49.194;12.104;2023-03-14T11:43:29;0.63;;;0.63;;
8088;SDS011;57635;49.194;12.104;2023-03-14T11:46:01;0.70;;;0.70;;
8088;SDS011;57635;49.194;12.104;2023-03-14T11:48:35;0.70;;;0.70;;
8088;SDS011;57635;49.194;12.104;2023-03-14T11:51:08;0.70;;;0.70;;
8088;SDS011;57635;49.194;12.104;2023-03-14T11:53:43;1.03;;;0.80;;
8088;SDS011;57635;49.194;12.104;2023-03-14T11:56:18;1.40;;;1.00;;
8088;SDS011;57635;49.194;12.104;2023-03-14T11:58:51;1.63;;;0.80;;
8088;SDS011;57635;49.194;12.104;2023-03-14T12:01:23;1.00;;;0.97;;
8088;SDS011;57635;49.194;12.104;2023-03-14T12:04:00;0.90;;;0.90;;
8088;SDS011;57635;49.194;12.104;2023-03-14T12:06:31;0.67;;;0.67;;
8088;SDS011;57635;49.194;12.104;2023-03-14T12:09:03;1.33;;;0.60;;
8088;SDS011;57635;49.194;12.104;2023-03-14T12:11:33;1.70;;;0.70;;
8088;SDS011;57635;49.194;12.104;2023-03-14T12:14:03;1.00;;;0.90;;
8088;SDS011;57635;49.194;12.104;2023-03-14T12:16:45;1.20;;;0.97;;
8088;SDS011;57635;49.194;12.104;2023-03-14T12:19:14;0.90;;;0.70;;
8088;SDS011;57635;49.194;12.104;2023-03-14T12:21:52;1.00;;;1.00;;
8088;SDS011;57635;49.194;12.104;2023-03-14T12:24:24;0.70;;;0.70;;
8088;SDS011;57635;49.194;12.104;2023-03-14T12:26:55;0.80;;;0.80;;
8088;SDS011;57635;49.194;12.104;2023-03-14T12:29:24;1.00;;;1.00;;
8088;SDS011;57635;49.194;12.104;2023-03-14T12:32:09;0.90;;;0.90;;
8088;SDS011;57635;49.194;12.104;2023-03-14T12:34:48;0.87;;;0.87;;
8088;SDS011;57635;49.194;12.104;2023-03-14T12:37:24;2.07;;;0.67;;
8088;SDS011;57635;49.194;12.104;2023-03-14T12:40:10;1.57;;;0.93;;
8088;SDS011;57635;49.194;12.104;2023-03-14T12:42:45;0.70;;;0.70;;
8088;SDS011;57635;49.194;12.104;2023-03-14T12:45:22;3.07;;;1.17;;
8088;SDS011;57635;49.194;12.104;2023-03-14T12:48:03;0.70;;;0.70;;
8088;SDS011;57635;49.194;12.104;2023-03-14T12:50:37;0.67;;;0.67;;
8088;SDS011;57635;49.194;12.104;2023-03-14T12:53:21;1.13;;;1.03;;
8088;SDS011;57635;49.194;12.104;2023-03-14T12:56:14;0.77;;;0.77;;
8088;SDS011;57635;49.194;12.104;2023-03-14T12:58:58;0.80;;;0.80;;
8088;SDS011;57635;49.194;12.104;2023-03-14T13:01:33;0.83;;;0.83;;
8088;SDS011;57635;49.194;12.104;2023-03-14T13:04:02;1.40;;;1.00;;
8088;SDS011;57635;49.194;12.104;2023-03-14T13:06:48;0.80;;;0.80;;
8088;SDS011;57635;49.194;12.104;2023-03-14T13:12:07;0.87;;;0.87;;
8088;SDS011;57635;49.194;12.104;2023-03-14T13:14:36;1.00;;;1.00;;
8088;SDS011;57635;49.194;12.104;2023-03-14T13:17:09;2.27;;;1.53;;
8088;SDS011;57635;49.194;12.104;2023-03-14T13:19:59;1.83;;;1.73;;
8088;SDS011;57635;49.194;12.104;2023-03-14T13:22:30;1.70;;;1.27;;
8088;SDS011;57635;49.194;12.104;2023-03-14T13:25:00;2.20;;;1.00;;
8088;SDS011;57635;49.194;12.104;2023-03-14T13:27:31;0.90;;;0.90;;
8088;SDS011;57635;49.194;12.104;2023-03-14T13:30:05;1.70;;;0.93;;
8088;SDS011;57635;49.194;12.104;2023-03-14T13:32:42;0.97;;;0.97;;
8088;SDS011;57635;49.194;12.104;2023-03-14T13:35:15;0.90;;;0.90;;
8088;SDS011;57635;49.194;12.104;2023-03-14T13:37:51;1.07;;;0.97;;
8088;SDS011;57635;49.194;12.104;2023-03-14T13:40:33;2.57;;;0.83;;
8088;SDS011;57635;49.194;12.104;2023-03-14T13:43:04;1.10;;;1.00;;
8088;SDS011;57635;49.194;12.104;2023-03-14T13:45:43;0.70;;;0.70;;
8088;SDS011;57635;49.194;12.104;2023-03-14T13:48:12;1.37;;;0.90;;
8088;SDS011;57635;49.194;12.104;2023-03-14T13:50:46;0.83;;;0.83;;
8088;SDS011;57635;49.194;12.104;2023-03-14T13:53:16;0.80;;;0.80;;
8088;SDS011;57635;49.194;12.104;2023-03-14T13:55:44;0.90;;;0.90;;
8088;SDS011;57635;49.194;12.104;2023-03-14T13:58:19;0.63;;;0.57;;
8088;SDS011;57635;49.194;12.104;2023-03-14T14:00:56;0.80;;;0.80;;
8088;SDS011;57635;49.194;12.104;2023-03-14T14:03:32;1.00;;;1.00;;
8088;SDS011;57635;49.194;12.104;2023-03-14T14:06:02;3.90;;;3.60;;
8088;SDS011;57635;49.194;12.104;2023-03-14T14:08:29;3.10;;;1.27;;
8088;SDS011;57635;49.194;12.104;2023-03-14T14:10:58;1.03;;;0.80;;
8088;SDS011;57635;49.194;12.104;2023-03-14T14:13:29;0.60;;;0.60;;
8088;SDS011;57635;49.194;12.104;2023-03-14T14:16:00;1.20;;;1.20;;
8088;SDS011;57635;49.194;12.104;2023-03-14T14:18:30;1.00;;;0.63;;
8088;SDS011;57635;49.194;12.104;2023-03-14T14:20:58;1.37;;;0.70;;
8088;SDS011;57635;49.194;12.104;2023-03-14T14:23:27;0.73;;;0.73;;
8088;SDS011;57635;49.194;12.104;2023-03-14T14:25:56;2.27;;;0.60;;
8088;SDS011;57635;49.194;12.104;2023-03-14T14:28:25;4.10;;;2.00;;
8088;SDS011;57635;49.194;12.104;2023-03-14T14:31:02;1.57;;;1.00;;
8088;SDS011;57635;49.194;12.104;2023-03-14T14:33:39;0.80;;;0.80;;
8088;SDS011;57635;49.194;12.104;2023-03-14T14:36:13;0.70;;;0.70;;
8088;SDS011;57635;49.194;12.104;2023-03-14T14:38:42;0.93;;;0.60;;
8088;SDS011;57635;49.194;12.104;2023-03-14T14:41:16;0.50;;;0.50;;
8088;SDS011;57635;49.194;12.104;2023-03-14T14:43:45;1.23;;;0.50;;
8088;SDS011;57635;49.194;12.104;2023-03-14T14:46:15;0.50;;;0.50;;
8088;SDS011;57635;49.194;12.104;2023-03-14T14:48:45;0.60;;;0.60;;
8088;SDS011;57635;49.194;12.104;2023-03-14T14:51:22;0.50;;;0.50;;
8088;SDS011;57635;49.194;12.104;2023-03-14T14:53:59;0.70;;;0.70;;
8088;SDS011;57635;49.194;12.104;2023-03-14T14:56:30;0.70;;;0.70;;
8088;SDS011;57635;49.194;12.104;2023-03-14T14:59:02;0.83;;;0.83;;
8088;SDS011;57635;49.194;12.104;2023-03-14T15:01:33;0.63;;;0.63;;
8088;SDS011;57635;49.194;12.104;2023-03-14T15:04:01;0.97;;;0.77;;
8088;SDS011;57635;49.194;12.104;2023-03-14T15:06:31;0.60;;;0.60;;
8088;SDS011;57635;49.194;12.104;2023-03-14T15:08:59;0.60;;;0.60;;
8088;SDS011;57635;49.194;12.104;2023-03-14T15:11:27;0.80;;;0.80;;